Terminal Aerodrome Forecast
Issued by NWS

Home | Current Version | Previous Version | Text Only | Print | Product List | Glossary On
Versions: 1 2 3 4 5 6 7 8 9 10 11 12
000
FTUS46 KPDT 270520
TAFPSC
TAF
KPSC 270520Z 2706/2806 VRB04KT P6SM SCT250
     FM271800 23015G25KT P6SM SCT250
     FM280400 27008G15KT P6SM BKN250=

USA.gov is the U.S. government's official web portal to all federal, state and local government web resources and services.